Time;durP1;ratioP1;P1;durP2;ratioP2;P2;SDS_P1;SDS_P2;PMS_P1;PMS_P2;Temp;Humidity;BMP_temperature;BMP_pressure;BME280_temperature;BME280_humidity;BME280_pressure;Samples;Min_cycle;Max_cycle;Signal;HPM_P1;HPM_P2
2022/05/15 00:01:33;;;;;;;25.13;7.18;;;;;;;14.45;62.50;101998.84;7392632;19;20094;-59
2022/05/15 00:04:02;;;;;;;24.60;6.50;;;;;;;14.40;62.73;101992.94;7392690;19;20023;-56
2022/05/15 00:06:34;;;;;;;24.85;7.15;;;;;;;14.48;62.54;101989.97;7393181;19;20024;-56
2022/05/15 00:09:03;;;;;;;22.52;7.30;;;;;;;14.39;62.65;101999.13;7393510;19;20029;-55
2022/05/15 00:11:32;;;;;;;27.42;8.07;;;;;;;14.45;62.63;101992.75;7393710;19;20372;-58
2022/05/15 00:14:02;;;;;;;25.42;7.53;;;;;;;14.35;62.71;101987.81;7392608;19;20010;-58
2022/05/15 00:16:32;;;;;;;24.95;8.05;;;;;;;14.45;62.42;101990.94;7394298;19;20036;-57
2022/05/15 00:19:01;;;;;;;21.70;7.28;;;;;;;14.43;62.48;101986.66;7394131;19;20007;-58
2022/05/15 00:21:30;;;;;;;23.73;7.43;;;;;;;14.28;62.70;101989.00;7392405;19;20086;-59
2022/05/15 00:24:02;;;;;;;26.85;6.70;;;;;;;14.28;62.75;101985.53;7391173;19;20334;-58
2022/05/15 00:26:31;;;;;;;20.90;6.85;;;;;;;14.36;62.64;101986.06;7393439;19;20006;-56
2022/05/15 00:29:00;;;;;;;23.73;6.63;;;;;;;14.24;62.75;101981.28;7395208;19;20022;-57
2022/05/15 00:31:30;;;;;;;26.73;7.43;;;;;;;14.31;62.52;101983.63;7395182;19;20602;-57
2022/05/15 00:33:59;;;;;;;27.95;7.07;;;;;;;14.50;62.18;101977.59;7392657;19;20006;-57
2022/05/15 00:36:28;;;;;;;22.98;7.45;;;;;;;14.40;62.40;101978.88;7395354;19;20022;-58
2022/05/15 00:38:58;;;;;;;32.20;7.60;;;;;;;14.20;62.76;101983.22;7394289;19;20078;-58
2022/05/15 00:41:29;;;;;;;22.17;6.95;;;;;;;14.15;62.94;101982.53;7395563;19;20352;-58
2022/05/15 00:44:02;;;;;;;24.17;6.65;;;;;;;14.14;62.96;101979.06;7394200;19;20034;-60
2022/05/15 00:46:34;;;;;;;27.85;7.30;;;;;;;14.28;62.71;101975.81;7396043;19;20018;-60
2022/05/15 00:49:07;;;;;;;21.85;6.70;;;;;;;14.05;63.27;101974.13;7396156;19;20025;-59
2022/05/15 00:51:38;;;;;;;;;;;;;;;14.08;63.54;101975.78;7396206;19;20011;-60
2022/05/15 00:54:11;;;;;;;21.27;6.90;;;;;;;13.97;63.35;101981.47;7396950;19;19929;-58
2022/05/15 00:56:48;;;;;;;25.55;7.07;;;;;;;14.06;63.15;101978.50;7396898;19;20021;-60
2022/05/15 00:59:22;;;;;;;25.35;6.57;;;;;;;13.97;63.39;101978.84;7391014;19;20040;-60
2022/05/15 01:01:51;;;;;;;25.90;6.95;;;;;;;13.98;63.41;101976.19;7390730;19;20018;-59
2022/05/15 01:04:21;;;;;;;24.58;6.20;;;;;;;13.98;63.42;101985.84;7389351;19;20054;-58
2022/05/15 01:06:50;;;;;;;24.65;6.80;;;;;;;13.94;63.61;101986.88;7391656;19;20068;-58
2022/05/15 01:09:20;;;;;;;24.48;6.75;;;;;;;13.89;63.78;101981.78;7390046;19;20018;-57
2022/05/15 01:11:53;;;;;;;22.55;6.45;;;;;;;13.94;63.67;101976.34;7389770;19;20009;-58
2022/05/15 01:14:22;;;;;;;23.63;6.70;;;;;;;13.92;63.68;101979.03;7390522;19;20049;-62
2022/05/15 01:16:52;;;;;;;31.60;7.22;;;;;;;13.79;64.14;101976.03;7389752;19;20364;-60
2022/05/15 01:19:31;;;;;;;32.22;7.25;;;;;;;13.83;63.91;101980.25;7389111;19;20070;-60
2022/05/15 01:22:04;;;;;;;27.00;7.03;;;;;;;13.79;64.12;101977.81;7387094;19;20096;-61
2022/05/15 01:24:34;;;;;;;23.33;6.95;;;;;;;13.82;63.59;101982.97;7388271;19;20093;-61
2022/05/15 01:27:08;;;;;;;22.70;6.45;;;;;;;13.75;64.07;101981.47;7389440;19;20007;-60
2022/05/15 01:29:43;;;;;;;20.55;6.35;;;;;;;13.81;63.73;101979.47;7388794;19;20356;-60
2022/05/15 01:32:13;;;;;;;20.73;6.65;;;;;;;13.77;63.77;101975.25;7391396;19;20022;-59
2022/05/15 01:34:43;;;;;;;25.75;6.85;;;;;;;13.81;63.41;101971.56;7388052;19;20123;-59
2022/05/15 01:37:15;;;;;;;30.35;7.40;;;;;;;13.87;63.29;101974.88;7389927;19;20014;-59
2022/05/15 01:39:44;;;;;;;29.73;7.13;;;;;;;13.86;63.34;101971.38;7389079;19;20070;-59
2022/05/15 01:42:13;;;;;;;22.48;6.32;;;;;;;13.74;63.31;101975.38;7388084;19;20013;-61
2022/05/15 01:44:43;;;;;;;20.48;6.45;;;;;;;13.79;63.18;101969.91;7387821;19;20309;-62
2022/05/15 01:47:12;;;;;;;24.48;7.13;;;;;;;13.66;63.32;101969.53;7389044;19;20015;-65
2022/05/15 01:49:41;;;;;;;25.00;6.80;;;;;;;13.81;62.97;101968.06;7388990;19;20014;-61
2022/05/15 01:52:11;;;;;;;24.83;6.40;;;;;;;13.66;63.18;101972.16;7388900;19;20044;-62
2022/05/15 01:54:42;;;;;;;22.17;6.22;;;;;;;13.62;63.37;101971.41;7390493;19;20070;-61
2022/05/15 01:57:12;;;;;;;26.35;6.47;;;;;;;13.59;63.49;101968.06;7390931;19;20044;-60
2022/05/15 01:59:41;;;;;;;27.50;6.30;;;;;;;13.75;63.18;101966.53;7387879;19;20010;-61
2022/05/15 02:02:12;;;;;;;20.13;6.15;;;;;;;13.73;63.15;101971.00;7387591;19;20476;-60
2022/05/15 02:04:41;;;;;;;22.15;6.45;;;;;;;13.72;63.11;101965.81;7389185;19;20021;-60
2022/05/15 02:07:10;;;;;;;24.70;6.63;;;;;;;13.76;63.23;101965.63;7389411;19;20018;-60
2022/05/15 02:09:42;;;;;;;21.30;6.00;;;;;;;13.68;63.24;101962.41;7391897;19;20003;-61
2022/05/15 02:12:12;;;;;;;21.17;5.78;;;;;;;13.69;63.27;101969.41;7391547;19;20039;-61
2022/05/15 02:14:42;;;;;;;22.23;6.70;;;;;;;13.72;63.20;101966.66;7391541;19;20015;-61
2022/05/15 02:17:11;;;;;;;31.00;7.15;;;;;;;13.65;63.55;101967.81;7390738;19;20022;-61
2022/05/15 02:19:40;;;;;;;23.48;6.03;;;;;;;13.57;63.91;101972.50;7389819;19;20117;-61
2022/05/15 02:22:12;;;;;;;22.02;6.25;;;;;;;13.53;64.04;101957.75;7387486;19;20045;-60
2022/05/15 02:24:44;;;;;;;23.23;6.82;;;;;;;13.73;63.69;101960.47;7385479;19;20349;-60
2022/05/15 02:27:14;;;;;;;21.93;5.90;;;;;;;13.62;63.92;101955.59;7387447;19;20050;-60
2022/05/15 02:29:44;;;;;;;29.67;6.50;;;;;;;13.43;64.59;101951.97;7388719;19;20025;-60
2022/05/15 02:32:13;;;;;;;27.08;6.72;;;;;;;13.51;64.43;101955.19;7387128;19;20019;-60
2022/05/15 02:34:42;;;;;;;22.77;5.90;;;;;;;13.62;64.17;101952.13;7394833;19;20352;-61
2022/05/15 02:37:11;;;;;;;24.52;6.35;;;;;;;13.58;64.31;101946.13;7394946;19;20021;-61
2022/05/15 02:39:43;;;;;;;28.73;6.28;;;;;;;13.49;64.42;101947.31;7395134;19;20032;-60
2022/05/15 02:42:13;;;;;;;22.80;6.07;;;;;;;13.43;64.83;101951.97;7393505;19;20435;-60
2022/05/15 02:44:42;;;;;;;26.30;6.63;;;;;;;13.42;65.00;101953.75;7392727;19;20334;-61
2022/05/15 02:47:11;;;;;;;19.92;5.82;;;;;;;13.35;65.30;101957.53;7395591;19;20350;-61
2022/05/15 02:52:22;;;;;;;21.58;5.57;;;;;;;13.39;65.69;101955.66;7395365;19;20023;-61
2022/05/15 02:54:54;;;;;;;23.25;7.03;;;;;;;13.22;66.07;101953.59;7392158;19;20050;-61
2022/05/15 02:57:23;;;;;;;26.65;6.35;;;;;;;13.25;66.02;101950.84;7394598;19;20010;-60
2022/05/15 02:59:52;;;;;;;23.88;7.10;;;;;;;13.54;65.24;101952.44;7393628;19;20022;-61
2022/05/15 03:02:21;;;;;;;22.58;5.78;;;;;;;13.30;65.98;101947.13;7394096;19;20015;-61
2022/05/15 03:04:51;;;;;;;25.38;6.80;;;;;;;13.30;65.92;101946.28;7391309;19;20567;-61
2022/05/15 03:07:21;;;;;;;23.05;6.10;;;;;;;13.36;65.88;101953.97;7395528;19;20018;-60
2022/05/15 03:09:50;;;;;;;27.75;6.95;;;;;;;13.33;66.01;101951.44;7394710;19;20108;-61
2022/05/15 03:12:22;;;;;;;23.63;6.78;;;;;;;13.32;66.13;101947.09;7394632;19;20023;-61
2022/05/15 03:14:51;;;;;;;23.00;6.40;;;;;;;13.31;66.34;101946.22;7391490;19;20416;-61
2022/05/15 03:17:21;;;;;;;18.65;5.70;;;;;;;13.30;66.40;101946.28;7395530;19;20045;-60
2022/05/15 03:19:51;;;;;;;19.10;5.53;;;;;;;13.18;67.00;101946.75;7394130;19;20526;-60
2022/05/15 03:22:20;;;;;;;30.55;7.10;;;;;;;13.24;66.86;101951.78;7393880;19;20014;-60
2022/05/15 03:24:49;;;;;;;24.88;6.78;;;;;;;13.18;66.91;101950.25;7391075;19;20293;-61
2022/05/15 03:27:20;;;;;;;24.83;6.30;;;;;;;13.14;67.24;101949.50;7394995;19;20361;-60
2022/05/15 03:29:49;;;;;;;22.65;6.53;;;;;;;13.11;67.40;101946.09;7394605;19;20030;-60
2022/05/15 03:32:18;;;;;;;22.92;6.20;;;;;;;13.13;67.24;101944.28;7393366;19;20003;-60
2022/05/15 03:34:48;;;;;;;24.15;7.03;;;;;;;13.05;67.57;101938.44;7392504;19;20018;-60
2022/05/15 03:37:18;;;;;;;26.63;6.97;;;;;;;13.06;67.65;101942.78;7393530;19;20045;-60
2022/05/15 03:39:47;;;;;;;22.73;6.65;;;;;;;13.07;67.81;101939.25;7392425;19;20053;-60
2022/05/15 03:42:17;;;;;;;25.50;6.63;;;;;;;12.98;67.97;101935.16;7392218;19;20022;-60
2022/05/15 03:44:48;;;;;;;20.73;6.05;;;;;;;12.89;68.52;101939.00;7390002;19;20019;-64
2022/05/15 03:47:17;;;;;;;23.55;6.43;;;;;;;12.98;68.20;101937.78;7394819;19;20028;-65
2022/05/15 03:49:48;;;;;;;22.75;7.07;;;;;;;12.77;68.94;101928.94;7390054;19;20023;-64
2022/05/15 03:52:18;;;;;;;21.60;6.15;;;;;;;12.78;68.95;101931.50;7390129;19;20030;-64
2022/05/15 03:54:48;;;;;;;25.33;6.50;;;;;;;12.99;68.28;101936.88;7389911;19;20029;-64
2022/05/15 03:57:17;;;;;;;20.15;6.45;;;;;;;13.02;68.27;101931.50;7390306;19;20017;-65
2022/05/15 03:59:49;;;;;;;20.40;6.32;;;;;;;12.94;68.70;101936.22;7390279;19;20006;-66
2022/05/15 04:02:18;;;;;;;20.02;6.43;;;;;;;12.93;68.66;101929.22;7391657;19;20049;-64
2022/05/15 04:04:47;;;;;;;20.55;6.43;;;;;;;12.90;68.82;101938.09;7389704;19;20094;-63
2022/05/15 04:07:16;;;;;;;25.05;7.20;;;;;;;12.93;68.61;101929.22;7390899;19;20019;-65
2022/05/15 04:09:46;;;;;;;25.33;6.63;;;;;;;12.87;69.17;101929.47;7391132;19;20011;-64
2022/05/15 04:12:16;;;;;;;22.65;6.55;;;;;;;12.79;69.13;101925.34;7393089;19;20370;-64
2022/05/15 04:14:45;;;;;;;25.38;6.20;;;;;;;12.78;69.22;101922.72;7390452;19;20482;-64
2022/05/15 04:17:16;;;;;;;21.60;6.43;;;;;;;12.77;69.08;101934.19;7391805;19;20054;-65
2022/05/15 04:19:46;;;;;;;23.02;7.00;;;;;;;12.74;69.48;101929.03;7390729;19;20023;-64
2022/05/15 04:22:15;;;;;;;20.40;6.70;;;;;;;12.59;70.15;101930.41;7390402;19;20451;-64
2022/05/15 04:24:44;;;;;;;28.15;6.93;;;;;;;12.70;69.86;101927.44;7390911;19;20060;-63
2022/05/15 04:27:14;;;;;;;23.77;6.13;;;;;;;12.71;69.91;101923.88;7390726;19;20100;-65
2022/05/15 04:29:43;;;;;;;19.83;6.80;;;;;;;12.70;69.80;101930.06;7389843;19;20371;-64
2022/05/15 04:32:12;;;;;;;23.48;6.65;;;;;;;12.75;69.67;101931.63;7391969;19;20038;-64
2022/05/15 04:34:43;;;;;;;21.23;6.28;;;;;;;12.78;69.59;101935.88;7389562;19;20021;-65
2022/05/15 04:37:12;;;;;;;21.13;7.25;;;;;;;12.88;69.59;101926.78;7391334;19;20057;-62
2022/05/15 04:39:41;;;;;;;21.30;6.40;;;;;;;13.00;68.83;101937.78;7391516;19;20357;-63
2022/05/15 04:42:11;;;;;;;22.85;7.88;;;;;;;12.94;69.48;101931.81;7390675;19;20025;-64
2022/05/15 04:44:40;;;;;;;18.63;6.15;;;;;;;12.78;69.98;101933.25;7390143;19;20376;-63
2022/05/15 04:47:09;;;;;;;22.05;6.75;;;;;;;12.77;69.89;101927.16;7391310;19;20348;-64
2022/05/15 04:49:38;;;;;;;18.98;6.32;;;;;;;12.80;69.66;101927.03;7391369;19;20073;-64
2022/05/15 04:52:10;;;;;;;27.20;7.03;;;;;;;12.90;69.62;101934.59;7391702;19;20030;-64
2022/05/15 04:54:39;;;;;;;28.08;7.30;;;;;;;12.90;69.74;101938.09;7390497;19;20031;-63
2022/05/15 04:57:08;;;;;;;24.75;6.88;;;;;;;12.92;69.61;101933.66;7389119;19;20028;-64
2022/05/15 04:59:37;;;;;;;22.30;7.10;;;;;;;12.93;69.55;101935.34;7390407;19;20332;-65
2022/05/15 05:02:07;;;;;;;22.25;6.90;;;;;;;12.96;69.42;101935.22;7390582;19;20018;-64
2022/05/15 05:04:36;;;;;;;26.63;7.30;;;;;;;12.81;69.92;101941.06;7390007;19;20025;-64
2022/05/15 05:07:05;;;;;;;23.27;7.13;;;;;;;12.92;69.55;101953.81;7391053;19;20490;-64
2022/05/15 05:09:37;;;;;;;18.83;6.30;;;;;;;12.91;69.85;101946.81;7389981;19;20033;-65
2022/05/15 05:12:06;;;;;;;23.50;6.80;;;;;;;13.00;69.61;101953.56;7390862;19;20030;-64
2022/05/15 05:14:35;;;;;;;22.55;6.88;;;;;;;13.03;69.56;101951.66;7389427;19;20022;-63
2022/05/15 05:17:05;;;;;;;21.63;6.63;;;;;;;12.91;69.49;101950.34;7390248;19;20010;-64
2022/05/15 05:19:34;;;;;;;21.40;6.72;;;;;;;13.02;69.45;101959.59;7390049;19;20110;-62
2022/05/15 05:22:03;;;;;;;22.30;7.25;;;;;;;12.98;69.30;101956.22;7389934;19;20011;-64
2022/05/15 05:24:33;;;;;;;21.23;7.13;;;;;;;13.12;69.02;101956.59;7389019;19;20029;-64
2022/05/15 05:27:05;;;;;;;18.40;6.38;;;;;;;13.23;68.78;101960.59;7390360;19;20108;-62
2022/05/15 05:29:34;;;;;;;23.45;7.22;;;;;;;13.28;69.03;101959.50;7389408;19;20093;-64
2022/05/15 05:32:03;;;;;;;18.58;6.85;;;;;;;13.25;68.78;101964.91;7389832;19;20409;-64
2022/05/15 05:34:32;;;;;;;27.25;7.57;;;;;;;13.46;68.44;101965.88;7388735;19;20033;-64
2022/05/15 05:37:00;;;;;;;21.52;7.35;;;;;;;13.42;68.24;101963.44;7389871;19;20026;-64
2022/05/15 05:39:30;;;;;;;22.77;7.22;;;;;;;13.36;68.08;101964.50;7390075;19;20328;-64
2022/05/15 05:41:59;;;;;;;21.13;6.88;;;;;;;13.33;68.50;101968.06;7390012;19;20517;-65
2022/05/15 05:44:31;;;;;;;24.20;7.43;;;;;;;13.47;68.24;101964.97;7388102;19;20024;-63
2022/05/15 05:47:00;;;;;;;22.63;7.05;;;;;;;13.61;67.73;101972.34;7389792;19;20016;-63
2022/05/15 05:49:29;;;;;;;22.17;7.10;;;;;;;13.60;67.70;101967.16;7388425;19;20034;-65
2022/05/15 05:51:58;;;;;;;22.02;6.85;;;;;;;13.61;67.63;101968.84;7390123;19;20017;-64
2022/05/15 05:54:26;;;;;;;17.90;6.55;;;;;;;13.60;67.46;101969.78;7389311;19;20471;-64
2022/05/15 05:56:57;;;;;;;22.33;6.45;;;;;;;13.67;67.32;101971.25;7391383;19;20678;-64
2022/05/15 05:59:26;;;;;;;23.35;6.90;;;;;;;13.75;67.19;101970.94;7390784;19;20106;-65
2022/05/15 06:01:58;;;;;;;17.88;6.25;;;;;;;13.72;67.33;101973.69;7391935;19;20482;-65
2022/05/15 06:07:10;;;;;;;22.80;7.30;;;;;;;13.61;67.76;101971.47;7389811;19;20050;-65
2022/05/15 06:09:40;;;;;;;21.73;6.78;;;;;;;13.62;67.50;101967.94;7395635;19;20026;-64
2022/05/15 06:12:10;;;;;;;20.48;7.10;;;;;;;13.63;67.29;101959.97;7401163;19;20574;-64
2022/05/15 06:14:39;;;;;;;25.13;8.55;;;;;;;13.72;67.20;101958.75;7396083;19;20026;-65
2022/05/15 06:17:11;;;;;;;19.23;6.82;;;;;;;13.76;67.08;101959.50;7396884;19;20374;-63
2022/05/15 06:19:40;;;;;;;24.75;7.80;;;;;;;13.87;66.96;101957.31;7395504;19;20014;-65
2022/05/15 06:22:10;;;;;;;20.13;7.30;;;;;;;13.76;66.81;101962.97;7397022;19;20010;-65
2022/05/15 06:24:39;;;;;;;17.80;6.97;;;;;;;13.82;66.86;101960.09;7394571;19;20019;-65
2022/05/15 06:27:08;;;;;;;21.80;7.15;;;;;;;13.89;66.55;101955.44;7396875;19;20120;-64
2022/05/15 06:29:39;;;;;;;21.23;6.97;;;;;;;14.01;66.38;101947.06;7396949;19;20037;-65
2022/05/15 06:32:11;;;;;;;20.98;7.30;;;;;;;14.24;66.19;101945.25;7395927;19;20015;-65
2022/05/15 06:34:40;;;;;;;18.77;7.05;;;;;;;14.31;65.89;101952.00;7394540;19;20348;-65
2022/05/15 06:37:09;;;;;;;18.38;6.95;;;;;;;14.40;65.55;101948.09;7395683;19;20061;-65
2022/05/15 06:39:38;;;;;;;25.83;7.32;;;;;;;14.42;65.42;101946.25;7395425;19;20022;-65
2022/05/15 06:42:08;;;;;;;19.20;7.85;;;;;;;14.41;65.38;101959.50;7395842;19;20011;-65
2022/05/15 06:44:43;;;;;;;22.05;7.78;;;;;;;14.21;65.55;101953.28;7391640;19;20365;-64
2022/05/15 06:47:14;;;;;;;23.80;7.75;;;;;;;14.10;65.67;101948.47;7395422;19;20010;-65
2022/05/15 06:49:44;;;;;;;24.58;8.57;;;;;;;14.26;65.54;101950.47;7395202;19;20021;-65
2022/05/15 06:52:12;;;;;;;21.10;7.45;;;;;;;14.59;65.35;101952.59;7396051;19;20070;-65
2022/05/15 06:54:41;;;;;;;20.85;8.13;;;;;;;14.70;65.09;101960.94;7394216;19;20018;-63
2022/05/15 06:59:52;;;;;;;22.35;7.85;;;;;;;14.43;65.34;101957.66;7395993;19;20017;-63
2022/05/15 07:02:24;;;;;;;19.10;7.93;;;;;;;14.56;65.26;101950.94;7395929;19;20023;-65
2022/05/15 07:04:53;;;;;;;20.93;8.13;;;;;;;15.00;64.92;101960.50;7391548;19;20018;-63
2022/05/15 07:07:22;;;;;;;21.83;8.02;;;;;;;14.69;64.96;101954.78;7394023;19;20582;-62
2022/05/15 07:09:51;;;;;;;24.63;8.90;;;;;;;14.92;64.71;101966.13;7394293;19;20019;-63
2022/05/15 07:12:20;;;;;;;24.88;8.20;;;;;;;15.21;63.93;101964.81;7394477;19;20014;-63
2022/05/15 07:14:49;;;;;;;25.45;8.70;;;;;;;15.19;63.80;101966.66;7393067;19;20480;-63
2022/05/15 07:17:18;;;;;;;22.35;8.85;;;;;;;15.07;63.74;101959.28;7395144;19;20018;-63
2022/05/15 07:19:49;;;;;;;20.92;8.45;;;;;;;15.10;64.14;101960.94;7392405;19;20014;-62
2022/05/15 07:22:18;;;;;;;21.48;9.20;;;;;;;15.17;64.32;101960.63;7395929;19;20022;-61
2022/05/15 07:24:47;;;;;;;20.88;8.23;;;;;;;15.37;63.78;101962.34;7392368;19;20015;-63
2022/05/15 07:27:17;;;;;;;18.15;8.40;;;;;;;15.62;63.14;101966.47;7395530;19;20014;-63
2022/05/15 07:29:46;;;;;;;22.63;8.93;;;;;;;15.81;62.54;101970.91;7394177;19;20019;-62
2022/05/15 07:32:15;;;;;;;22.67;9.18;;;;;;;15.76;62.89;101971.09;7393645;19;20015;-63
2022/05/15 07:34:44;;;;;;;24.27;8.75;;;;;;;15.66;63.72;101967.16;7392111;19;20019;-63
2022/05/15 07:37:17;;;;;;;22.08;9.57;;;;;;;15.75;62.99;101957.03;7393352;19;20011;-63
2022/05/15 07:39:46;;;;;;;20.58;8.65;;;;;;;16.01;62.92;101962.03;7393248;19;20015;-63
2022/05/15 07:42:15;;;;;;;22.52;9.13;;;;;;;15.94;62.37;101961.44;7393973;19;20006;-63
2022/05/15 07:44:45;;;;;;;20.42;8.57;;;;;;;15.99;62.37;101963.88;7392076;19;20014;-62
2022/05/15 07:47:14;;;;;;;24.23;8.73;;;;;;;15.90;62.77;101951.97;7393731;19;20043;-61
2022/05/15 07:49:43;;;;;;;21.27;9.10;;;;;;;16.27;62.09;101963.38;7392220;19;20015;-62
2022/05/15 07:52:14;;;;;;;19.50;8.20;;;;;;;16.31;62.13;101958.78;7393381;19;20030;-63
2022/05/15 07:54:43;;;;;;;23.92;9.50;;;;;;;16.47;61.55;101951.78;7393960;19;20022;-63
2022/05/15 07:57:12;;;;;;;20.10;9.23;;;;;;;16.44;61.81;101947.50;7397303;19;20014;-64
2022/05/15 07:59:41;;;;;;;21.30;9.15;;;;;;;16.76;60.72;101946.75;7391572;19;20021;-63
2022/05/15 08:02:11;;;;;;;19.00;9.02;;;;;;;16.59;61.67;101945.00;7392458;19;20018;-62
2022/05/15 08:10:07;;;;;;;19.10;8.15;;;;;;;17.34;59.44;101948.13;7392648;19;20014;-64
2022/05/15 08:12:36;;;;;;;19.50;9.13;;;;;;;17.02;59.34;101948.09;7400387;19;20055;-65
2022/05/15 08:15:07;;;;;;;20.80;9.95;;;;;;;17.22;58.40;101943.50;7393889;19;20376;-66
2022/05/15 08:17:36;;;;;;;18.35;8.80;;;;;;;17.52;57.63;101940.94;7393973;19;20399;-65
2022/05/15 08:25:42;;;;;;;17.83;9.05;;;;;;;17.44;58.73;101937.88;7395441;19;20014;-66
2022/05/15 08:28:10;;;;;;;18.08;9.23;;;;;;;17.71;57.51;101937.25;7394043;19;20108;-66
2022/05/15 08:30:39;;;;;;;19.85;9.63;;;;;;;17.72;57.18;101946.94;7392008;19;20017;-65
2022/05/15 08:33:12;;;;;;;20.17;9.45;;;;;;;17.98;56.14;101946.34;7393456;19;20015;-66
2022/05/15 08:35:41;;;;;;;19.08;8.95;;;;;;;18.04;55.82;101941.59;7393498;19;20012;-66
2022/05/15 08:38:12;;;;;;;23.63;10.13;;;;;;;17.88;56.71;101938.94;7393152;19;20007;-63
2022/05/15 08:40:49;;;;;;;18.58;8.63;;;;;;;18.12;56.07;101947.31;7391804;19;20030;-65
2022/05/15 08:43:21;;;;;;;18.63;9.10;;;;;;;18.00;56.53;101935.63;7391040;19;20022;-65
2022/05/15 08:45:58;;;;;;;18.98;9.25;;;;;;;18.77;55.20;101936.38;7392270;19;20472;-65
2022/05/15 08:48:29;;;;;;;20.70;9.10;;;;;;;18.64;55.21;101938.94;7392353;19;20345;-65
2022/05/15 08:50:59;;;;;;;22.50;8.93;;;;;;;18.99;54.95;101941.25;7391178;19;20521;-65
2022/05/15 08:53:35;;;;;;;20.27;9.05;;;;;;;19.31;53.12;101930.41;7390947;19;20030;-65
2022/05/15 08:56:07;;;;;;;20.63;9.00;;;;;;;19.04;54.17;101929.47;7389855;19;20029;-66
2022/05/15 08:58:42;;;;;;;17.40;8.75;;;;;;;19.14;53.46;101926.16;7391047;19;20214;-66
2022/05/15 09:01:15;;;;;;;17.40;7.65;;;;;;;18.98;54.59;101930.72;7390119;19;20030;-65
2022/05/15 09:03:44;;;;;;;;;;;;;;;19.30;53.64;101922.50;7390758;19;20018;-65
2022/05/15 09:06:25;;;;;;;20.52;8.73;;;;;;;19.50;53.53;101923.88;7391523;19;20280;-66
2022/05/15 09:09:10;;;;;;;21.02;9.18;;;;;;;19.68;52.93;101919.19;7390292;19;20309;-66
2022/05/15 09:11:57;;;;;;;16.52;8.57;;;;;;;19.54;52.55;101922.75;7390604;19;20363;-65
2022/05/15 09:14:42;;;;;;;17.33;7.38;;;;;;;19.44;54.20;101911.00;7389119;19;20019;-66
2022/05/15 09:17:19;;;;;;;16.70;7.88;;;;;;;20.21;51.52;101909.47;7390547;19;20011;-66
2022/05/15 09:19:51;;;;;;;14.77;7.28;;;;;;;20.20;50.89;101904.25;7389550;19;20022;-65
2022/05/15 09:22:21;;;;;;;15.88;7.38;;;;;;;20.49;49.96;101912.91;7390261;19;20034;-65
2022/05/15 09:24:55;;;;;;;21.33;7.97;;;;;;;20.48;50.18;101911.22;7388992;19;20018;-65
2022/05/15 09:27:25;;;;;;;13.65;7.22;;;;;;;20.48;49.72;101908.53;7390070;19;20458;-65
2022/05/15 09:29:56;;;;;;;16.10;6.85;;;;;;;20.29;49.91;101900.09;7388900;19;20448;-64
2022/05/15 09:32:31;;;;;;;19.08;6.75;;;;;;;20.34;49.79;101900.66;7390266;19;20007;-64
2022/05/15 09:35:03;;;;;;;16.77;6.53;;;;;;;20.43;49.00;101902.69;7388386;19;20062;-64
2022/05/15 09:40:23;;;;;;;15.95;6.00;;;;;;;21.14;47.07;101912.91;7389165;19;20545;-65
2022/05/15 09:45:48;;;;;;;17.33;5.25;;;;;;;20.64;44.72;101907.47;7390414;19;20018;-65
2022/05/15 09:48:24;;;;;;;10.32;3.67;;;;;;;20.95;43.50;101902.69;7390033;19;20018;-65
2022/05/15 09:51:00;;;;;;;13.02;4.75;;;;;;;21.26;43.11;101909.31;7389922;19;20050;-69
2022/05/15 09:53:40;;;;;;;12.82;5.13;;;;;;;21.04;44.07;101907.38;7389251;19;20090;-66
2022/05/15 09:56:14;;;;;;;12.77;5.32;;;;;;;20.79;46.33;101893.13;7389865;19;20047;-66
2022/05/15 09:58:47;;;;;;;18.27;6.28;;;;;;;20.66;46.03;101898.44;7389623;19;20014;-67
2022/05/15 10:01:24;;;;;;;18.38;6.10;;;;;;;21.31;45.15;101891.19;7389937;19;20479;-66
2022/05/15 10:03:56;;;;;;;17.30;6.15;;;;;;;21.26;44.93;101890.66;7388962;19;20061;-66
2022/05/15 10:06:29;;;;;;;13.23;6.22;;;;;;;21.51;44.43;101891.56;7390610;19;20479;-66
2022/05/15 10:09:16;;;;;;;19.17;7.22;;;;;;;21.47;44.68;101885.59;7390200;19;20011;-67
2022/05/15 10:11:50;;;;;;;14.15;6.63;;;;;;;21.43;45.91;101884.97;7391747;19;20472;-67
2022/05/15 10:14:27;;;;;;;14.18;6.28;;;;;;;21.71;45.46;101874.94;7388912;19;20022;-66
2022/05/15 10:16:58;;;;;;;16.88;6.65;;;;;;;21.51;44.62;101862.22;7389967;19;20017;-66
2022/05/15 10:19:41;;;;;;;16.40;6.50;;;;;;;22.20;44.19;101853.50;7389242;19;20094;-67
2022/05/15 10:22:15;;;;;;;;;;;;;;;21.74;44.46;101857.88;7390329;19;20018;-65
2022/05/15 10:24:47;;;;;;;16.73;6.30;;;;;;;22.10;43.81;101851.53;7388455;19;19923;-66
2022/05/15 10:27:25;;;;;;;16.50;6.37;;;;;;;22.37;42.35;101865.56;7389693;19;20021;-65
2022/05/15 10:30:02;;;;;;;14.52;5.50;;;;;;;21.54;43.11;101852.19;7389168;19;20585;-66
2022/05/15 10:32:36;;;;;;;16.45;5.53;;;;;;;22.59;41.23;101854.03;7389399;19;20535;-66
2022/05/15 10:35:06;;;;;;;12.52;4.75;;;;;;;22.90;40.50;101860.47;7389232;19;20015;-66
2022/05/15 10:37:50;;;;;;;11.98;4.80;;;;;;;22.53;40.54;101850.03;7389311;19;20066;-65
2022/05/15 10:40:27;;;;;;;13.98;5.18;;;;;;;22.63;40.18;101860.84;7389690;19;20014;-67
2022/05/15 10:43:09;;;;;;;14.40;4.25;;;;;;;22.73;39.07;101848.44;7389445;19;20026;-67
2022/05/15 10:45:46;;;;;;;16.50;4.68;;;;;;;22.70;37.67;101866.56;7388074;19;20427;-67
2022/05/15 10:48:37;;;;;;;12.60;4.25;;;;;;;22.67;37.69;101851.63;7388721;19;20014;-66
2022/05/15 10:51:14;;;;;;;21.55;5.40;;;;;;;22.86;37.38;101851.00;7387834;19;20046;-67
2022/05/15 10:59:48;;;;;;;12.68;4.43;;;;;;;23.19;36.96;101851.94;7395270;19;20074;-66
2022/05/15 11:02:56;;;;;;;11.02;4.25;;;;;;;22.60;36.78;101845.91;7393937;19;20013;-66
2022/05/15 11:05:30;;;;;;;12.02;4.05;;;;;;;22.99;36.87;101841.00;7391680;19;20030;-67
2022/05/15 11:08:21;;;;;;;20.08;4.57;;;;;;;23.09;36.18;101838.44;7395307;19;20050;-68
2022/05/15 11:10:55;;;;;;;10.70;4.28;;;;;;;23.39;36.84;101830.75;7394833;19;20018;-66
2022/05/15 11:13:28;;;;;;;11.85;4.75;;;;;;;23.18;36.36;101828.84;7393586;19;20026;-66
2022/05/15 11:16:09;;;;;;;14.57;4.97;;;;;;;23.49;36.18;101832.50;7395109;19;20022;-66
2022/05/15 11:18:58;;;;;;;10.15;4.20;;;;;;;23.71;36.33;101825.34;7395818;19;20104;-66
2022/05/15 11:21:34;;;;;;;12.60;4.30;;;;;;;23.35;35.94;101824.78;7397767;19;20817;-65
2022/05/15 11:24:06;;;;;;;11.13;3.42;;;;;;;23.73;35.62;101819.91;7394778;19;20077;-66
2022/05/15 11:26:38;;;;;;;10.13;3.78;;;;;;;23.55;35.30;101820.44;7394201;19;20459;-65
2022/05/15 11:29:12;;;;;;;9.57;3.60;;;;;;;24.01;35.80;101813.91;7394851;19;20019;-66
2022/05/15 11:31:48;;;;;;;9.43;3.95;;;;;;;24.31;34.91;101812.22;7394828;19;20767;-67
2022/05/15 11:34:17;;;;;;;13.18;4.05;;;;;;;24.32;34.41;101802.38;7393603;19;20525;-69
2022/05/15 11:36:49;;;;;;;17.55;4.10;;;;;;;23.90;35.64;101795.25;7394045;19;20015;-67
2022/05/15 11:39:27;;;;;;;14.07;4.18;;;;;;;24.34;34.99;101803.94;7394288;19;20479;-67
2022/05/15 11:42:18;;;;;;;14.05;4.93;;;;;;;23.98;35.34;101799.94;7394334;19;20022;-68
2022/05/15 11:44:49;;;;;;;10.57;4.22;;;;;;;24.08;34.74;101791.94;7393392;19;20100;-68
2022/05/15 11:47:29;;;;;;;13.90;4.43;;;;;;;24.39;33.37;101792.81;7393544;19;20019;-66
2022/05/15 11:50:10;;;;;;;14.13;3.42;;;;;;;24.10;33.02;101780.13;7392915;19;20425;-68
2022/05/15 11:52:43;;;;;;;13.95;3.35;;;;;;;24.38;33.89;101777.69;7393710;19;20021;-66
2022/05/15 11:55:34;;;;;;;;;;;;;;;24.05;34.37;101768.13;7392646;19;20491;-67
2022/05/15 11:58:23;;;;;;;9.93;3.63;;;;;;;24.94;32.28;101778.16;7393929;19;20348;-66
2022/05/15 12:01:04;;;;;;;9.98;3.55;;;;;;;24.10;33.21;101766.75;7392684;19;20034;-67
2022/05/15 12:04:03;;;;;;;9.20;3.50;;;;;;;25.09;32.40;101770.56;7391318;19;20014;-67
2022/05/15 12:06:46;;;;;;;10.75;2.95;;;;;;;24.45;30.53;101767.31;7387292;19;20014;-67
2022/05/15 12:09:33;;;;;;;12.10;3.63;;;;;;;24.70;31.54;101763.28;7392527;19;20015;-67
2022/05/15 12:12:52;;;;;;;12.50;3.20;;;;;;;25.16;30.88;101755.59;7394463;19;20037;-66